Aviation Digital Data Service (ADDS)

Output produced by METARs form (0719 UTC 02 March 2015)
found at http://aviationweather.gov/adds/metars/
 
KMSS 020540Z 0206/0306 24004KT 6SM -SHSN BR OVC040 
     FM021200 26015G29KT P6SM BKN050 
     FM022300 28012G20KT P6SM SCT035